createdAt,value
2023-04-16T00:00:26.441Z,9.86
2023-04-16T00:04:42.986Z,9.82
2023-04-16T00:08:59.554Z,9.90
2023-04-16T00:13:15.850Z,9.67
2023-04-16T00:17:32.145Z,9.86
2023-04-16T00:21:48.485Z,9.59
2023-04-16T00:26:05.079Z,9.61
2023-04-16T00:30:21.350Z,9.57
2023-04-16T00:34:37.609Z,9.65
2023-04-16T00:38:54.116Z,9.63
2023-04-16T00:43:10.300Z,9.61
2023-04-16T00:47:28.320Z,9.28
2023-04-16T00:51:44.681Z,9.54
2023-04-16T00:56:02.670Z,9.39
2023-04-16T01:00:21.504Z,9.61
2023-04-16T01:04:37.844Z,9.58
2023-04-16T01:08:54.088Z,9.58
2023-04-16T01:13:10.341Z,9.49
2023-04-16T01:17:26.645Z,9.42
2023-04-16T01:21:42.971Z,9.19
2023-04-16T01:25:59.239Z,9.14
2023-04-16T01:30:15.592Z,9.35
2023-04-16T01:34:31.754Z,9.13
2023-04-16T01:38:48.116Z,9.15
2023-04-16T01:43:04.941Z,8.95
2023-04-16T01:47:21.660Z,9.08
2023-04-16T01:51:37.840Z,8.97
2023-04-16T01:55:54.138Z,8.84
2023-04-16T02:00:10.652Z,8.74
2023-04-16T02:04:26.934Z,8.73
2023-04-16T02:08:43.473Z,8.94
2023-04-16T02:12:59.673Z,8.81
2023-04-16T02:17:15.964Z,8.92
2023-04-16T02:21:32.109Z,8.87
2023-04-16T02:25:48.495Z,8.54
2023-04-16T02:30:05.173Z,8.84
2023-04-16T02:34:21.387Z,8.72
2023-04-16T02:38:37.830Z,8.57
2023-04-16T02:42:54.438Z,8.44
2023-04-16T02:47:10.601Z,8.49
2023-04-16T02:51:27.915Z,8.31
2023-04-16T02:55:52.868Z,8.48
2023-04-16T03:00:10.075Z,8.48
2023-04-16T03:04:26.455Z,8.40
2023-04-16T03:08:42.683Z,8.35
2023-04-16T03:12:59.239Z,7.90
2023-04-16T03:17:15.624Z,8.25
2023-04-16T03:21:32.126Z,8.25
2023-04-16T03:25:48.372Z,8.49
2023-04-16T03:30:05.059Z,8.27
2023-04-16T03:34:21.302Z,8.17
2023-04-16T03:38:37.635Z,8.19
2023-04-16T03:42:53.814Z,8.46
2023-04-16T03:47:10.144Z,8.20
2023-04-16T03:51:26.592Z,8.20
2023-04-16T03:55:43.224Z,8.23
2023-04-16T03:59:59.426Z,8.50
2023-04-16T04:04:16.009Z,8.20
2023-04-16T04:08:32.276Z,8.18
2023-04-16T04:12:48.451Z,8.12
2023-04-16T04:17:04.674Z,8.09
2023-04-16T04:21:21.048Z,8.29
2023-04-16T04:25:37.659Z,8.05
2023-04-16T04:29:54.520Z,8.25
2023-04-16T04:34:10.821Z,8.49
2023-04-16T04:38:27.135Z,8.51
2023-04-16T04:42:43.379Z,8.43
2023-04-16T04:46:59.628Z,8.24
2023-04-16T04:51:16.005Z,8.26
2023-04-16T04:55:32.372Z,8.38
2023-04-16T04:59:48.585Z,8.32
2023-04-16T05:04:05.120Z,8.41
2023-04-16T05:08:21.350Z,8.75
2023-04-16T05:12:37.556Z,8.53
2023-04-16T05:16:54.324Z,8.78
2023-04-16T05:21:10.515Z,8.61
2023-04-16T05:25:26.675Z,8.78
2023-04-16T05:29:42.841Z,8.68
2023-04-16T05:33:58.976Z,8.95
2023-04-16T05:38:15.107Z,8.94
2023-04-16T05:42:31.357Z,9.12
2023-04-16T05:46:47.637Z,9.38
2023-04-16T05:51:04.012Z,9.55
2023-04-16T05:55:20.261Z,9.84
2023-04-16T05:59:36.561Z,10.00
2023-04-16T06:03:52.953Z,10.22
2023-04-16T06:08:09.218Z,10.31
2023-04-16T06:12:25.686Z,10.57
2023-04-16T06:16:41.964Z,10.74
2023-04-16T06:20:59.646Z,10.06
2023-04-16T06:25:18.121Z,10.49
2023-04-16T06:29:41.124Z,10.58
2023-04-16T06:33:58.195Z,10.59
2023-04-16T06:38:14.706Z,10.80
2023-04-16T06:42:31.161Z,11.05
2023-04-16T06:46:47.442Z,11.04
2023-04-16T06:51:03.900Z,11.26
2023-04-16T06:55:20.141Z,11.23
2023-04-16T06:59:36.570Z,10.97
2023-04-16T07:03:53.125Z,10.83
2023-04-16T07:08:09.737Z,10.97
2023-04-16T07:12:25.987Z,11.36
2023-04-16T07:16:42.272Z,11.26
2023-04-16T07:20:58.578Z,11.68
2023-04-16T07:25:14.918Z,11.83
2023-04-16T07:29:31.195Z,11.87
2023-04-16T07:33:47.433Z,11.68
2023-04-16T07:38:03.639Z,11.87
2023-04-16T07:42:19.880Z,12.14
2023-04-16T07:46:43.634Z,12.20
2023-04-16T07:51:02.907Z,11.95
2023-04-16T07:55:19.170Z,12.24
2023-04-16T07:59:35.267Z,11.52
2023-04-16T08:03:52.206Z,12.20
2023-04-16T08:08:08.596Z,12.16
2023-04-16T08:12:24.878Z,12.85
2023-04-16T08:16:42.116Z,13.25
2023-04-16T08:20:58.428Z,13.31
2023-04-16T08:25:14.961Z,13.65
2023-04-16T08:29:31.297Z,13.82
2023-04-16T08:33:47.656Z,13.73
2023-04-16T08:38:05.059Z,14.49
2023-04-16T08:42:40.957Z,14.26
2023-04-16T08:46:59.292Z,14.60
2023-04-16T08:51:17.511Z,14.77
2023-04-16T08:55:39.047Z,15.42
2023-04-16T08:59:56.176Z,15.38
2023-04-16T09:04:14.331Z,15.80
2023-04-16T09:08:31.240Z,16.33
2023-04-16T09:12:47.564Z,16.27
2023-04-16T09:17:04.459Z,17.01
2023-04-16T09:21:23.799Z,17.29
2023-04-16T09:25:40.458Z,17.81
2023-04-16T09:29:56.767Z,18.10
2023-04-16T09:34:12.971Z,17.74
2023-04-16T09:38:48.228Z,18.62
2023-04-16T09:43:12.263Z,18.66
2023-04-16T09:47:41.717Z,18.32
2023-04-16T09:52:00.174Z,18.86
2023-04-16T09:56:16.768Z,18.99
2023-04-16T10:00:32.935Z,18.92
2023-04-16T10:04:51.146Z,19.01
2023-04-16T10:09:11.251Z,18.81
2023-04-16T10:13:31.458Z,19.13
2023-04-16T10:17:48.247Z,19.22
2023-04-16T10:22:05.466Z,19.31
2023-04-16T10:26:22.490Z,19.31
2023-04-16T10:30:39.804Z,19.58
2023-04-16T10:34:56.807Z,19.98
2023-04-16T10:39:16.905Z,20.03
2023-04-16T10:43:40.723Z,19.92
2023-04-16T10:47:58.758Z,19.91
2023-04-16T10:52:19.734Z,20.08
2023-04-16T10:56:37.134Z,19.81
2023-04-16T11:00:53.580Z,19.84
2023-04-16T11:05:10.013Z,19.80
2023-04-16T11:09:47.813Z,19.87
2023-04-16T11:14:04.996Z,20.21
2023-04-16T11:18:21.344Z,19.58
2023-04-16T11:22:38.538Z,19.61
2023-04-16T11:26:54.717Z,19.86
2023-04-16T11:31:12.952Z,19.58
2023-04-16T11:35:29.275Z,19.64
2023-04-16T11:39:54.443Z,19.61
2023-04-16T11:44:25.008Z,19.82
2023-04-16T11:48:51.839Z,19.64
2023-04-16T11:53:08.089Z,19.35
2023-04-16T11:57:31.600Z,19.63
2023-04-16T12:02:06.131Z,19.83
2023-04-16T12:06:24.321Z,19.57
2023-04-16T12:10:56.895Z,20.29
2023-04-16T12:15:13.123Z,20.53
2023-04-16T12:19:29.272Z,20.61
2023-04-16T12:23:45.549Z,21.21
2023-04-16T12:28:02.373Z,21.76
2023-04-16T12:32:25.015Z,21.41
2023-04-16T12:36:41.652Z,21.37
2023-04-16T12:40:58.593Z,21.67
2023-04-16T12:45:14.760Z,21.62
2023-04-16T12:49:31.100Z,21.95
2023-04-16T12:53:47.411Z,21.65
2023-04-16T12:58:03.718Z,21.23
2023-04-16T13:02:20.064Z,21.98
2023-04-16T13:06:37.986Z,22.03
2023-04-16T13:10:54.183Z,22.38
2023-04-16T13:15:11.090Z,21.99
2023-04-16T13:19:27.426Z,22.74
2023-04-16T13:23:43.690Z,23.12
2023-04-16T13:27:59.873Z,22.75
2023-04-16T13:32:16.279Z,22.61
2023-04-16T13:36:33.282Z,22.43
2023-04-16T13:40:49.471Z,22.22
2023-04-16T13:45:06.345Z,21.93
2023-04-16T13:49:23.122Z,21.86
2023-04-16T13:53:39.300Z,21.73
2023-04-16T13:57:56.607Z,21.35
2023-04-16T14:02:13.270Z,21.46
2023-04-16T14:06:29.594Z,21.45
2023-04-16T14:10:45.887Z,21.42
2023-04-16T14:15:04.583Z,21.35
2023-04-16T14:19:21.548Z,21.16
2023-04-16T14:23:37.807Z,21.29
2023-04-16T14:27:54.190Z,21.55
2023-04-16T14:32:10.556Z,21.45
2023-04-16T14:36:27.483Z,21.46
2023-04-16T14:40:43.785Z,21.70
2023-04-16T14:45:00.261Z,21.95
2023-04-16T14:49:16.838Z,22.16
2023-04-16T14:53:34.604Z,22.38
2023-04-16T14:57:51.490Z,22.57
2023-04-16T15:02:08.189Z,22.52
2023-04-16T15:06:24.505Z,22.81
2023-04-16T15:10:42.682Z,22.72
2023-04-16T15:15:00.174Z,22.11
2023-04-16T15:19:16.434Z,21.35
2023-04-16T15:23:32.732Z,20.74
2023-04-16T15:27:49.016Z,20.34
2023-04-16T15:32:05.474Z,20.45
2023-04-16T15:36:21.743Z,20.83
2023-04-16T15:40:38.003Z,20.42
2023-04-16T15:44:54.207Z,20.69
2023-04-16T15:49:10.775Z,20.00
2023-04-16T15:53:27.112Z,19.74
2023-04-16T15:57:43.432Z,20.31
2023-04-16T16:01:59.844Z,20.35
2023-04-16T16:06:18.057Z,20.35
2023-04-16T16:10:34.645Z,20.16
2023-04-16T16:14:51.201Z,19.91
2023-04-16T16:19:07.614Z,19.84
2023-04-16T16:23:24.136Z,19.66
2023-04-16T16:27:40.900Z,19.70
2023-04-16T16:31:57.329Z,19.46
2023-04-16T16:36:13.688Z,19.29
2023-04-16T16:40:31.029Z,18.92
2023-04-16T16:44:49.012Z,18.70
2023-04-16T16:49:06.242Z,18.86
2023-04-16T16:53:22.527Z,18.67
2023-04-16T16:57:39.780Z,18.27
2023-04-16T17:01:56.200Z,18.04
2023-04-16T17:06:12.556Z,17.98
2023-04-16T17:10:29.218Z,17.82
2023-04-16T17:14:49.751Z,17.63
2023-04-16T17:19:06.096Z,17.38
2023-04-16T17:23:22.709Z,17.53
2023-04-16T17:27:41.887Z,17.34
2023-04-16T17:31:58.553Z,17.32
2023-04-16T17:36:14.861Z,17.45
2023-04-16T17:40:31.191Z,17.45
2023-04-16T17:44:47.850Z,17.33
2023-04-16T17:49:04.174Z,17.05
2023-04-16T17:53:20.821Z,17.07
2023-04-16T17:57:37.532Z,17.02
2023-04-16T18:01:53.902Z,17.08
2023-04-16T18:06:10.211Z,16.67
2023-04-16T18:10:26.973Z,16.63
2023-04-16T18:14:44.987Z,16.65
2023-04-16T18:19:01.219Z,16.42
2023-04-16T18:23:17.554Z,16.28
2023-04-16T18:27:37.136Z,16.22
2023-04-16T18:31:55.416Z,16.12
2023-04-16T18:36:11.974Z,15.96
2023-04-16T18:40:29.490Z,16.12
2023-04-16T18:44:51.529Z,15.86
2023-04-16T18:49:08.423Z,16.03
2023-04-16T18:53:24.667Z,15.93
2023-04-16T18:57:41.055Z,15.83
2023-04-16T19:01:57.839Z,15.69
2023-04-16T19:06:14.163Z,15.76
2023-04-16T19:10:30.548Z,15.70
2023-04-16T19:14:46.783Z,15.17
2023-04-16T19:19:02.917Z,15.09
2023-04-16T19:23:19.383Z,14.98
2023-04-16T19:27:36.431Z,15.10
2023-04-16T19:31:52.800Z,15.31
2023-04-16T19:36:09.131Z,15.15
2023-04-16T19:40:25.437Z,15.14
2023-04-16T19:44:41.646Z,15.19
2023-04-16T19:48:57.872Z,15.03
2023-04-16T19:53:14.155Z,14.93
2023-04-16T19:57:30.717Z,15.20
2023-04-16T20:01:47.084Z,15.16
2023-04-16T20:06:05.586Z,15.15
2023-04-16T20:10:22.551Z,15.16
2023-04-16T20:14:38.955Z,15.20
2023-04-16T20:18:55.155Z,15.11
2023-04-16T20:23:11.430Z,14.89
2023-04-16T20:27:27.762Z,14.78
2023-04-16T20:31:46.160Z,14.89
2023-04-16T20:36:02.432Z,14.99
2023-04-16T20:40:18.693Z,14.99
2023-04-16T20:44:40.547Z,14.74
2023-04-16T20:48:56.819Z,14.58
2023-04-16T20:53:13.256Z,14.71
2023-04-16T20:57:29.987Z,14.84
2023-04-16T21:01:47.788Z,14.84
2023-04-16T21:06:04.593Z,14.89
2023-04-16T21:10:20.961Z,14.84
2023-04-16T21:14:37.295Z,14.94
2023-04-16T21:18:53.535Z,14.88
2023-04-16T21:23:09.761Z,14.67
2023-04-16T21:27:26.403Z,14.10
2023-04-16T21:31:42.700Z,14.61
2023-04-16T21:35:58.914Z,14.52
2023-04-16T21:40:15.171Z,14.46
2023-04-16T21:44:31.374Z,14.20
2023-04-16T21:48:48.668Z,14.16
2023-04-16T21:53:06.668Z,14.15
2023-04-16T21:57:23.011Z,14.08
2023-04-16T22:01:39.291Z,14.08
2023-04-16T22:06:02.598Z,14.05
2023-04-16T22:10:18.864Z,13.97
2023-04-16T22:14:43.938Z,14.22
2023-04-16T22:19:02.573Z,14.19
2023-04-16T22:23:18.796Z,14.24
2023-04-16T22:27:35.267Z,14.09
2023-04-16T22:31:51.579Z,14.15
2023-04-16T22:36:08.141Z,14.25
2023-04-16T22:40:24.447Z,14.17
2023-04-16T22:44:40.676Z,14.26
2023-04-16T22:48:57.875Z,14.22
2023-04-16T22:53:14.072Z,14.11
2023-04-16T22:57:30.456Z,14.11
2023-04-16T23:01:46.839Z,14.22
2023-04-16T23:06:04.269Z,14.22
2023-04-16T23:10:20.476Z,14.16
2023-04-16T23:14:37.177Z,14.21
2023-04-16T23:18:53.316Z,14.00
2023-04-16T23:23:09.522Z,14.11
2023-04-16T23:27:25.630Z,13.92
2023-04-16T23:31:42.000Z,13.81
2023-04-16T23:35:58.229Z,13.57
2023-04-16T23:40:14.513Z,13.53
2023-04-16T23:44:30.812Z,13.55
2023-04-16T23:48:46.962Z,13.39
2023-04-16T23:53:03.136Z,13.34
2023-04-16T23:57:19.402Z,13.16
